createdAt,value
2019-04-04T00:00:10.117Z,1.37
2019-04-04T00:02:39.385Z,1.20
2019-04-04T00:05:08.926Z,2.15
2019-04-04T00:07:38.190Z,1.40
2019-04-04T00:10:08.744Z,1.25
2019-04-04T00:12:39.074Z,1.22
2019-04-04T00:15:08.981Z,1.37
2019-04-04T00:17:38.257Z,1.30
2019-04-04T00:20:08.418Z,1.80
2019-04-04T00:22:37.674Z,1.77
2019-04-04T00:25:09.737Z,1.40
2019-04-04T00:27:38.068Z,1.40
2019-04-04T00:30:07.944Z,1.57
2019-04-04T00:32:37.478Z,1.47
2019-04-04T00:35:06.897Z,1.70
2019-04-04T00:37:36.581Z,1.35
2019-04-04T00:40:10.890Z,1.40
2019-04-04T00:42:38.404Z,2.30
2019-04-04T00:45:08.352Z,2.02
2019-04-04T00:47:37.610Z,3.02
2019-04-04T00:50:08.119Z,2.47
2019-04-04T00:52:40.561Z,1.87
2019-04-04T00:55:09.270Z,3.25
2019-04-04T00:57:38.524Z,3.70
2019-04-04T01:00:11.748Z,2.75
2019-04-04T01:02:41.005Z,3.77
2019-04-04T01:05:10.337Z,3.02
2019-04-04T01:07:39.870Z,5.65
2019-04-04T01:10:09.567Z,3.27
2019-04-04T01:12:38.831Z,3.05
2019-04-04T01:15:08.624Z,3.33
2019-04-04T01:17:37.894Z,3.02
2019-04-04T01:20:09.594Z,6.60
2019-04-04T01:22:38.865Z,4.37
2019-04-04T01:25:09.562Z,4.20
2019-04-04T01:27:38.828Z,5.00
2019-04-04T01:30:11.882Z,3.70
2019-04-04T01:32:40.298Z,3.80
2019-04-04T01:35:09.894Z,7.58
2019-04-04T01:37:39.174Z,4.47
2019-04-04T01:40:08.834Z,4.58
2019-04-04T01:42:38.948Z,5.50
2019-04-04T01:45:08.981Z,5.45
2019-04-04T01:47:38.254Z,8.15
2019-04-04T01:50:07.857Z,7.95
2019-04-04T01:52:37.412Z,4.83
2019-04-04T01:55:07.011Z,5.75
2019-04-04T01:57:38.554Z,6.25
2019-04-04T02:00:09.839Z,6.55
2019-04-04T02:02:39.107Z,4.85
2019-04-04T02:05:51.861Z,8.10
2019-04-04T02:08:21.119Z,5.42
2019-04-04T02:10:50.365Z,6.97
2019-04-04T02:13:19.647Z,7.53
2019-04-04T02:15:48.912Z,5.72
2019-04-04T02:18:18.188Z,7.12
2019-04-04T02:20:47.456Z,8.25
2019-04-04T02:23:16.736Z,9.00
2019-04-04T02:25:46.001Z,6.58
2019-04-04T02:28:15.272Z,7.60
2019-04-04T02:30:48.111Z,8.30
2019-04-04T02:33:15.894Z,10.25
2019-04-04T02:35:45.497Z,10.15
2019-04-04T02:38:15.104Z,9.48
2019-04-04T02:40:44.373Z,12.50
2019-04-04T02:43:13.651Z,11.57
2019-04-04T02:45:42.916Z,10.65
2019-04-04T02:48:12.191Z,9.28
2019-04-04T02:50:41.455Z,12.43
2019-04-04T02:53:11.033Z,10.50
2019-04-04T02:55:40.619Z,11.40
2019-04-04T02:58:13.872Z,11.43
2019-04-04T03:00:40.891Z,14.95
2019-04-04T03:03:10.164Z,12.13
2019-04-04T03:05:39.771Z,12.15
2019-04-04T03:08:09.379Z,11.00
2019-04-04T03:10:38.646Z,12.03
2019-04-04T03:13:07.931Z,14.43
2019-04-04T03:15:41.022Z,14.10
2019-04-04T03:18:08.184Z,13.32
2019-04-04T03:20:37.791Z,16.50
2019-04-04T03:23:07.070Z,24.70
2019-04-04T03:25:36.334Z,15.15
2019-04-04T03:28:05.607Z,25.30
2019-04-04T03:30:34.906Z,22.52
2019-04-04T03:33:04.163Z,20.68
2019-04-04T03:35:33.450Z,23.30
2019-04-04T03:38:03.028Z,23.38
2019-04-04T03:40:32.941Z,29.85
2019-04-04T03:43:02.460Z,25.57
2019-04-04T03:45:31.731Z,28.05
2019-04-04T03:48:01.011Z,24.87
2019-04-04T03:50:30.859Z,28.95
2019-04-04T03:53:00.112Z,28.95
2019-04-04T03:55:29.412Z,32.45
2019-04-04T03:57:58.973Z,27.10
2019-04-04T04:00:31.141Z,25.95
2019-04-04T04:03:00.740Z,30.45
2019-04-04T04:05:35.658Z,27.90
2019-04-04T04:08:03.235Z,26.77
2019-04-04T04:10:33.726Z,26.75
2019-04-04T04:13:03.261Z,27.35
2019-04-04T04:15:32.776Z,27.45
2019-04-04T04:18:02.385Z,23.22
2019-04-04T04:20:36.101Z,25.08
2019-04-04T04:23:02.926Z,25.57
2019-04-04T04:25:35.343Z,23.60
2019-04-04T04:28:03.904Z,27.35
2019-04-04T04:30:33.400Z,29.07
2019-04-04T04:33:03.004Z,24.82
2019-04-04T04:35:32.606Z,28.42
2019-04-04T04:38:02.219Z,30.27
2019-04-04T04:40:31.550Z,28.80
2019-04-04T04:43:01.158Z,42.43
2019-04-04T04:45:30.400Z,33.50
2019-04-04T04:47:59.914Z,35.78
2019-04-04T04:50:29.443Z,41.15
2019-04-04T04:52:58.969Z,36.60
2019-04-04T04:55:28.540Z,49.05
2019-04-04T04:57:57.816Z,41.42
2019-04-04T05:00:27.864Z,37.50
2019-04-04T05:02:57.813Z,32.73
2019-04-04T05:05:27.077Z,30.85
2019-04-04T05:07:56.349Z,39.73
2019-04-04T05:10:25.640Z,47.50
2019-04-04T05:12:54.908Z,42.62
2019-04-04T05:15:24.201Z,43.08
2019-04-04T05:17:53.536Z,53.50
2019-04-04T05:20:23.127Z,39.65
2019-04-04T05:22:53.842Z,46.33
2019-04-04T05:25:23.124Z,39.35
2019-04-04T05:27:52.727Z,43.20
2019-04-04T05:30:22.009Z,61.28
2019-04-04T05:32:52.408Z,42.73
2019-04-04T05:35:22.292Z,48.92
2019-04-04T05:37:51.568Z,56.95
2019-04-04T05:40:23.225Z,44.00
2019-04-04T05:42:51.993Z,50.08
2019-04-04T05:45:21.268Z,30.97
2019-04-04T05:47:50.518Z,43.42
2019-04-04T05:50:19.802Z,43.42
2019-04-04T05:52:49.091Z,36.53
2019-04-04T05:55:18.336Z,41.65
2019-04-04T05:57:48.944Z,34.53
2019-04-04T06:00:18.957Z,40.17
2019-04-04T06:02:48.566Z,38.83
2019-04-04T06:05:18.171Z,38.17
2019-04-04T06:07:47.462Z,34.00
2019-04-04T06:10:18.528Z,39.65
2019-04-04T06:12:47.975Z,38.30
2019-04-04T06:15:17.323Z,40.05
2019-04-04T06:17:46.592Z,43.30
2019-04-04T06:20:17.484Z,45.12
2019-04-04T06:22:46.749Z,47.98
2019-04-04T06:25:16.032Z,57.58
2019-04-04T06:27:45.312Z,51.88
2019-04-04T06:30:14.718Z,42.23
2019-04-04T06:32:43.989Z,45.28
2019-04-04T06:35:15.452Z,43.13
2019-04-04T06:37:46.174Z,48.70
2019-04-04T06:40:16.078Z,56.60
2019-04-04T06:42:45.668Z,48.33
2019-04-04T06:45:15.912Z,50.30
2019-04-04T06:47:45.398Z,41.68
2019-04-04T06:50:14.890Z,44.83
2019-04-04T06:52:44.153Z,44.65
2019-04-04T06:55:13.603Z,44.13
2019-04-04T06:57:44.023Z,39.88
2019-04-04T07:00:15.943Z,44.73
2019-04-04T07:02:47.167Z,40.73
2019-04-04T07:05:15.609Z,43.68
2019-04-04T07:07:44.877Z,41.25
2019-04-04T07:10:14.290Z,40.80
2019-04-04T07:12:43.563Z,36.42
2019-04-04T07:15:16.034Z,36.80
2019-04-04T07:17:44.843Z,39.60
2019-04-04T07:20:16.565Z,43.58
2019-04-04T07:22:45.249Z,38.38
2019-04-04T07:25:14.790Z,41.73
2019-04-04T07:27:45.343Z,35.23
2019-04-04T07:30:15.998Z,37.45
2019-04-04T07:32:45.272Z,47.10
2019-04-04T07:35:16.818Z,32.42
2019-04-04T07:37:45.613Z,36.10
2019-04-04T07:40:15.016Z,33.40
2019-04-04T07:42:47.114Z,35.63
2019-04-04T07:45:15.527Z,32.85
2019-04-04T07:47:46.682Z,33.40
2019-04-04T07:50:15.809Z,31.85
2019-04-04T07:52:45.093Z,36.45
2019-04-04T07:55:15.329Z,34.30
2019-04-04T07:57:44.616Z,36.08
2019-04-04T08:00:14.048Z,32.35
2019-04-04T08:02:43.299Z,36.23
2019-04-04T08:05:13.359Z,31.10
2019-04-04T08:07:42.876Z,34.33
2019-04-04T08:10:20.440Z,40.08
2019-04-04T08:12:43.281Z,41.63
2019-04-04T08:15:12.933Z,38.63
2019-04-04T08:17:42.532Z,43.55
2019-04-04T08:20:12.137Z,41.75
2019-04-04T08:22:41.421Z,42.98
2019-04-04T08:25:10.944Z,41.70
2019-04-04T08:27:40.547Z,35.85
2019-04-04T08:30:10.767Z,33.35
2019-04-04T08:32:40.049Z,31.90
2019-04-04T08:35:09.637Z,33.85
2019-04-04T08:37:38.917Z,35.00
2019-04-04T08:40:09.642Z,32.10
2019-04-04T08:42:39.216Z,32.80
2019-04-04T08:45:08.752Z,28.60
2019-04-04T08:47:38.337Z,27.05
2019-04-04T08:50:08.188Z,30.40
2019-04-04T08:52:37.472Z,26.35
2019-04-04T08:55:07.782Z,23.47
2019-04-04T08:57:37.060Z,27.45
2019-04-04T09:00:09.900Z,21.48
2019-04-04T09:02:39.467Z,23.47
2019-04-04T09:05:12.376Z,22.27
2019-04-04T09:07:40.117Z,22.35
2019-04-04T09:10:10.068Z,25.92
2019-04-04T09:12:39.603Z,22.42
2019-04-04T09:15:09.561Z,22.10
2019-04-04T09:17:39.163Z,21.80
2019-04-04T09:20:09.980Z,18.42
2019-04-04T09:22:40.777Z,20.97
2019-04-04T09:25:11.156Z,24.32
2019-04-04T09:27:40.535Z,20.20
2019-04-04T09:30:10.958Z,22.40
2019-04-04T09:32:40.242Z,22.90
2019-04-04T09:35:10.304Z,18.90
2019-04-04T09:37:39.910Z,22.10
2019-04-04T09:40:10.031Z,21.95
2019-04-04T09:42:39.637Z,23.83
2019-04-04T09:45:10.219Z,19.52
2019-04-04T09:47:39.773Z,20.02
2019-04-04T09:50:11.534Z,19.07
2019-04-04T09:52:40.817Z,23.42
2019-04-04T09:55:10.768Z,21.30
2019-04-04T09:57:40.358Z,20.02
2019-04-04T10:00:22.363Z,22.20
2019-04-04T10:02:52.066Z,25.17
2019-04-04T10:05:21.349Z,20.82
2019-04-04T10:07:51.286Z,19.40
2019-04-04T10:10:20.890Z,18.17
2019-04-04T10:12:50.167Z,17.07
2019-04-04T10:15:20.001Z,21.15
2019-04-04T10:17:49.669Z,19.12
2019-04-04T10:20:19.292Z,18.37
2019-04-04T10:22:48.650Z,19.77
2019-04-04T10:25:18.227Z,19.73
2019-04-04T10:27:47.834Z,19.15
2019-04-04T10:30:17.749Z,20.77
2019-04-04T10:32:47.354Z,20.08
2019-04-04T10:35:16.691Z,16.30
2019-04-04T10:37:46.035Z,16.90
2019-04-04T10:40:15.397Z,15.70
2019-04-04T10:42:44.675Z,15.25
2019-04-04T10:45:14.178Z,12.40
2019-04-04T10:47:43.533Z,11.25
2019-04-04T10:50:13.397Z,8.43
2019-04-04T10:52:42.983Z,11.00
2019-04-04T10:55:12.582Z,9.90
2019-04-04T10:57:41.851Z,9.88
2019-04-04T11:00:12.063Z,12.30
2019-04-04T11:02:41.331Z,10.00
2019-04-04T11:05:10.858Z,9.48
2019-04-04T11:07:40.106Z,10.13
2019-04-04T11:10:10.256Z,10.20
2019-04-04T11:12:39.521Z,13.28
2019-04-04T11:15:08.930Z,9.95
2019-04-04T11:17:38.198Z,9.25
2019-04-04T11:20:08.041Z,8.05
2019-04-04T11:22:37.303Z,7.72
2019-04-04T11:25:06.913Z,7.40
2019-04-04T11:27:36.189Z,6.67
2019-04-04T11:30:08.748Z,6.08
2019-04-04T11:32:38.343Z,8.43
2019-04-04T11:35:07.971Z,7.35
2019-04-04T11:37:37.239Z,6.80
2019-04-04T11:40:06.868Z,6.40
2019-04-04T11:42:36.820Z,5.75
2019-04-04T11:45:06.703Z,6.67
2019-04-04T11:47:36.298Z,6.65
2019-04-04T11:50:07.991Z,6.28
2019-04-04T11:52:37.258Z,7.37
2019-04-04T11:55:07.887Z,6.12
2019-04-04T11:57:37.492Z,7.37
2019-04-04T12:00:08.085Z,7.50
2019-04-04T12:02:37.632Z,6.12
2019-04-04T12:05:08.629Z,6.35
2019-04-04T12:07:38.560Z,6.40
2019-04-04T12:10:08.421Z,6.22
2019-04-04T12:12:38.108Z,6.00
2019-04-04T12:15:10.380Z,5.95
2019-04-04T12:17:39.647Z,5.05
2019-04-04T12:20:09.469Z,5.05
2019-04-04T12:22:38.734Z,4.92
2019-04-04T12:25:08.708Z,4.03
2019-04-04T12:27:38.310Z,4.72
2019-04-04T12:30:09.443Z,5.10
2019-04-04T12:32:38.964Z,4.35
2019-04-04T12:35:08.571Z,4.15
2019-04-04T12:37:37.834Z,3.55
2019-04-04T12:40:19.881Z,4.12
2019-04-04T12:42:39.339Z,3.70
2019-04-04T12:45:10.108Z,3.10
2019-04-04T12:47:39.680Z,2.92
2019-04-04T12:50:09.360Z,2.47
2019-04-04T12:52:38.897Z,2.47
2019-04-04T12:55:08.447Z,1.95
2019-04-04T12:57:37.713Z,1.60
2019-04-04T13:00:09.399Z,1.70
2019-04-04T13:02:38.659Z,1.95
2019-04-04T13:05:09.480Z,1.90
2019-04-04T13:07:38.750Z,1.95
2019-04-04T13:10:12.248Z,2.15
2019-04-04T13:12:41.658Z,1.60
2019-04-04T13:15:11.407Z,2.25
2019-04-04T13:17:40.686Z,1.92
2019-04-04T13:20:10.462Z,1.82
2019-04-04T13:22:40.024Z,1.98
2019-04-04T13:25:10.281Z,2.00
2019-04-04T13:27:39.850Z,1.57
2019-04-04T13:30:12.685Z,1.82
2019-04-04T13:32:42.246Z,2.10
2019-04-04T13:35:12.057Z,2.25
2019-04-04T13:37:41.323Z,2.87
2019-04-04T13:40:10.814Z,2.50
2019-04-04T13:42:40.361Z,2.42
2019-04-04T13:45:09.886Z,2.83
2019-04-04T13:47:40.378Z,3.22
2019-04-04T13:50:12.386Z,3.98
2019-04-04T13:52:41.204Z,3.12
2019-04-04T13:55:10.864Z,2.60
2019-04-04T13:57:40.133Z,2.60
2019-04-04T14:00:10.935Z,2.50
2019-04-04T14:02:40.504Z,2.30
2019-04-04T14:05:14.007Z,2.67
2019-04-04T14:07:43.768Z,2.40
2019-04-04T14:10:17.079Z,2.10
2019-04-04T14:12:45.956Z,2.60
2019-04-04T14:15:16.022Z,2.20
2019-04-04T14:17:45.626Z,3.12
2019-04-04T14:20:15.168Z,3.25
2019-04-04T14:22:44.733Z,2.27
2019-04-04T14:25:14.355Z,2.00
2019-04-04T14:27:43.953Z,2.12
2019-04-04T14:30:13.533Z,1.90
2019-04-04T14:32:42.805Z,1.90
2019-04-04T14:35:12.388Z,1.95
2019-04-04T14:37:41.975Z,1.95
2019-04-04T14:40:11.887Z,1.70
2019-04-04T14:42:41.159Z,2.85
2019-04-04T14:45:10.508Z,1.80
2019-04-04T14:47:39.788Z,1.80
2019-04-04T14:50:09.809Z,1.67
2019-04-04T14:52:39.743Z,1.70
2019-04-04T14:55:09.291Z,1.50
2019-04-04T14:57:38.562Z,1.35
2019-04-04T15:00:10.865Z,1.20
2019-04-04T15:02:40.158Z,1.47
2019-04-04T15:05:10.084Z,1.35
2019-04-04T15:07:39.622Z,1.22
2019-04-04T15:10:10.051Z,1.55
2019-04-04T15:12:39.654Z,1.70
2019-04-04T15:15:11.349Z,1.50
2019-04-04T15:17:40.922Z,1.60
2019-04-04T15:20:11.142Z,1.60
2019-04-04T15:22:40.748Z,1.55
2019-04-04T15:25:10.028Z,1.60
2019-04-04T15:27:39.556Z,1.40
2019-04-04T15:30:10.288Z,1.50
2019-04-04T15:32:39.559Z,1.35
2019-04-04T15:35:08.903Z,1.37
2019-04-04T15:37:38.499Z,1.20
2019-04-04T15:40:08.754Z,1.40
2019-04-04T15:42:38.028Z,1.10
2019-04-04T15:45:08.151Z,1.75
2019-04-04T15:47:37.851Z,1.67
2019-04-04T15:50:08.788Z,1.60
2019-04-04T15:52:38.398Z,2.05
2019-04-04T15:55:08.415Z,1.82
2019-04-04T15:57:38.023Z,2.20
2019-04-04T16:00:11.131Z,1.90
2019-04-04T16:02:40.424Z,2.12
2019-04-04T16:05:10.119Z,1.50
2019-04-04T16:07:39.649Z,1.62
2019-04-04T16:10:09.060Z,1.85
2019-04-04T16:12:38.636Z,1.57
2019-04-04T16:15:08.077Z,1.50
2019-04-04T16:17:37.647Z,1.67
2019-04-04T16:20:09.169Z,1.60
2019-04-04T16:22:38.455Z,1.20
2019-04-04T16:25:08.626Z,1.60
2019-04-04T16:27:38.228Z,1.47
2019-04-04T16:30:08.963Z,1.55
2019-04-04T16:32:38.318Z,1.30
2019-04-04T16:35:08.795Z,1.37
2019-04-04T16:37:38.389Z,1.50
2019-04-04T16:40:10.217Z,1.42
2019-04-04T16:42:39.754Z,1.20
2019-04-04T16:45:09.384Z,1.40
2019-04-04T16:47:38.711Z,1.30
2019-04-04T16:50:09.372Z,1.17
2019-04-04T16:52:38.911Z,1.00
2019-04-04T16:55:08.920Z,1.20
2019-04-04T16:57:38.540Z,1.00
2019-04-04T17:00:12.450Z,1.10
2019-04-04T17:02:41.802Z,0.85
2019-04-04T17:05:11.787Z,0.78
2019-04-04T17:07:41.372Z,0.82
2019-04-04T17:10:11.896Z,0.82
2019-04-04T17:12:41.177Z,0.65
2019-04-04T17:15:12.344Z,0.57
2019-04-04T17:17:41.953Z,0.50
2019-04-04T17:20:12.073Z,0.55
2019-04-04T17:22:41.358Z,0.60
2019-04-04T17:25:10.689Z,0.50
2019-04-04T17:27:39.973Z,0.42
2019-04-04T17:30:09.757Z,0.50
2019-04-04T17:32:39.032Z,0.50
2019-04-04T17:35:08.713Z,0.50
2019-04-04T17:37:37.959Z,0.55
2019-04-04T17:40:08.467Z,0.53
2019-04-04T17:42:37.723Z,0.50
2019-04-04T17:45:11.594Z,0.70
2019-04-04T17:47:40.911Z,0.50
2019-04-04T17:50:12.483Z,0.60
2019-04-04T17:52:41.830Z,0.65
2019-04-04T17:55:11.624Z,0.60
2019-04-04T17:57:41.101Z,0.80
2019-04-04T18:00:12.327Z,0.70
2019-04-04T18:02:41.857Z,0.68
2019-04-04T18:05:11.990Z,0.90
2019-04-04T18:07:41.263Z,0.90
2019-04-04T18:10:12.356Z,0.90
2019-04-04T18:12:41.638Z,1.00
2019-04-04T18:15:11.361Z,0.90
2019-04-04T18:17:40.633Z,1.00
2019-04-04T18:20:10.719Z,0.80
2019-04-04T18:22:39.988Z,0.95
2019-04-04T18:25:09.639Z,1.10
2019-04-04T18:27:38.897Z,1.37
2019-04-04T18:30:12.846Z,1.52
2019-04-04T18:32:42.180Z,1.57
2019-04-04T18:35:11.710Z,1.40
2019-04-04T18:37:41.465Z,1.60
2019-04-04T18:40:11.724Z,1.70
2019-04-04T18:42:52.623Z,2.30
2019-04-04T18:45:13.233Z,1.70
2019-04-04T18:47:42.778Z,1.80
2019-04-04T18:50:12.390Z,2.30
2019-04-04T18:52:41.992Z,2.70
2019-04-04T18:55:19.496Z,2.22
2019-04-04T18:57:43.768Z,2.12
2019-04-04T19:00:13.994Z,2.35
2019-04-04T19:02:43.334Z,2.60
2019-04-04T19:05:13.308Z,2.40
2019-04-04T19:07:42.914Z,2.17
2019-04-04T19:10:12.828Z,2.37
2019-04-04T19:12:42.439Z,2.40
2019-04-04T19:15:13.096Z,2.25
2019-04-04T19:17:42.403Z,2.65
2019-04-04T19:20:12.789Z,2.75
2019-04-04T19:22:42.119Z,2.77
2019-04-04T19:25:13.791Z,2.60
2019-04-04T19:27:42.949Z,3.45
2019-04-04T19:30:13.282Z,3.47
2019-04-04T19:32:42.880Z,2.95
2019-04-04T19:35:12.592Z,3.10
2019-04-04T19:37:42.118Z,3.00
2019-04-04T19:40:11.804Z,2.98
2019-04-04T19:42:41.421Z,3.25
2019-04-04T19:45:11.332Z,3.92
2019-04-04T19:47:40.937Z,3.50
2019-04-04T19:50:11.878Z,3.67
2019-04-04T19:52:41.490Z,4.00
2019-04-04T19:55:11.297Z,4.37
2019-04-04T19:57:40.559Z,3.67
2019-04-04T20:00:11.651Z,4.05
2019-04-04T20:02:43.701Z,4.78
2019-04-04T20:05:12.056Z,4.60
2019-04-04T20:07:41.318Z,4.30
2019-04-04T20:10:11.201Z,5.10
2019-04-04T20:12:40.466Z,4.78
2019-04-04T20:15:10.383Z,4.25
2019-04-04T20:17:39.643Z,5.55
2019-04-04T20:20:09.833Z,5.15
2019-04-04T20:22:39.102Z,5.00
2019-04-04T20:25:09.470Z,5.97
2019-04-04T20:27:38.727Z,5.12
2019-04-04T20:30:14.576Z,5.28
2019-04-04T20:32:43.800Z,5.87
2019-04-04T20:35:13.514Z,5.50
2019-04-04T20:37:42.798Z,5.78
2019-04-04T20:40:12.046Z,5.87
2019-04-04T20:42:41.336Z,5.90
2019-04-04T20:45:10.740Z,6.15
2019-04-04T20:47:40.049Z,6.17
2019-04-04T20:50:09.715Z,6.30
2019-04-04T20:52:39.013Z,6.62
2019-04-04T20:55:08.347Z,6.25
2019-04-04T20:57:37.626Z,7.17
2019-04-04T21:00:09.876Z,6.00
2019-04-04T21:02:39.158Z,6.00
2019-04-04T21:05:09.066Z,6.95
2019-04-04T21:07:38.342Z,6.33
2019-04-04T21:10:07.779Z,6.28
2019-04-04T21:12:37.029Z,5.90
2019-04-04T21:15:09.471Z,6.58
2019-04-04T21:17:38.754Z,6.83
2019-04-04T21:20:08.257Z,5.92
2019-04-04T21:22:37.533Z,6.42
2019-04-04T21:25:07.026Z,5.53
2019-04-04T21:27:36.304Z,6.33
2019-04-04T21:30:07.484Z,5.80
2019-04-04T21:32:36.762Z,6.67
2019-04-04T21:35:07.636Z,6.30
2019-04-04T21:37:36.909Z,5.62
2019-04-04T21:40:06.808Z,6.50
2019-04-04T21:42:36.363Z,5.85
2019-04-04T21:45:07.540Z,6.42
2019-04-04T21:47:36.887Z,7.90
2019-04-04T21:50:07.823Z,6.00
2019-04-04T21:52:37.771Z,6.08
2019-04-04T21:55:07.745Z,6.37
2019-04-04T21:57:37.026Z,5.87
2019-04-04T22:00:08.470Z,8.33
2019-04-04T22:02:37.756Z,6.78
2019-04-04T22:05:08.624Z,6.12
2019-04-04T22:07:37.899Z,6.55
2019-04-04T22:10:08.911Z,6.95
2019-04-04T22:12:38.187Z,6.30
2019-04-04T22:15:10.647Z,6.45
2019-04-04T22:17:39.926Z,6.00
2019-04-04T22:20:09.598Z,6.05
2019-04-04T22:22:38.877Z,5.97
2019-04-04T22:25:08.781Z,5.90
2019-04-04T22:27:38.332Z,6.72
2019-04-04T22:30:09.534Z,6.17
2019-04-04T22:32:38.815Z,7.33
2019-04-04T22:35:08.355Z,6.15
2019-04-04T22:37:37.632Z,6.03
2019-04-04T22:40:08.031Z,6.40
2019-04-04T22:42:37.305Z,7.03
2019-04-04T22:45:08.381Z,5.60
2019-04-04T22:47:37.683Z,7.83
2019-04-04T22:50:07.661Z,7.03
2019-04-04T22:52:36.939Z,6.20
2019-04-04T22:55:06.511Z,7.33
2019-04-04T22:57:35.782Z,9.00
2019-04-04T23:00:09.576Z,6.05
2019-04-04T23:02:39.204Z,6.37
2019-04-04T23:05:08.809Z,7.70
2019-04-04T23:07:38.089Z,7.35
2019-04-04T23:10:09.061Z,6.70
2019-04-04T23:12:38.345Z,6.75
2019-04-04T23:15:10.222Z,10.45
2019-04-04T23:17:39.495Z,6.87
2019-04-04T23:20:10.429Z,9.05
2019-04-04T23:22:46.999Z,7.10
2019-04-04T23:25:11.410Z,7.10
2019-04-04T23:27:41.018Z,8.25
2019-04-04T23:30:11.037Z,8.03
2019-04-04T23:32:40.643Z,6.80
2019-04-04T23:35:10.253Z,7.00
2019-04-04T23:37:39.771Z,9.68
2019-04-04T23:40:09.467Z,7.03
2019-04-04T23:42:38.982Z,8.03
2019-04-04T23:45:08.785Z,7.87
2019-04-04T23:47:43.337Z,7.47
2019-04-04T23:50:09.948Z,9.95
2019-04-04T23:52:39.556Z,8.10
2019-04-04T23:55:09.159Z,8.00
2019-04-04T23:57:38.438Z,9.13
